sensor_id;sensor_type;location;lat;lon;timestamp;P1;durP1;ratioP1;P2;durP2;ratioP2
44728;SDS011;30457;53.590;9.922;2023-07-22T00:01:14;3.55;;;2.55;;
44728;SDS011;30457;53.590;9.922;2023-07-22T00:05:39;3.28;;;2.60;;
44728;SDS011;30457;53.590;9.922;2023-07-22T00:10:06;3.75;;;2.63;;
44728;SDS011;30457;53.590;9.922;2023-07-22T00:14:32;3.90;;;2.60;;
44728;SDS011;30457;53.590;9.922;2023-07-22T00:18:58;6.03;;;2.85;;
44728;SDS011;30457;53.590;9.922;2023-07-22T00:23:23;7.03;;;2.88;;
44728;SDS011;30457;53.590;9.922;2023-07-22T00:27:49;4.13;;;2.72;;
44728;SDS011;30457;53.590;9.922;2023-07-22T00:32:15;4.78;;;3.10;;
44728;SDS011;30457;53.590;9.922;2023-07-22T00:36:40;4.20;;;2.88;;
44728;SDS011;30457;53.590;9.922;2023-07-22T00:41:06;4.68;;;3.28;;
44728;SDS011;30457;53.590;9.922;2023-07-22T00:45:32;6.38;;;3.47;;
44728;SDS011;30457;53.590;9.922;2023-07-22T00:49:57;6.78;;;3.30;;
44728;SDS011;30457;53.590;9.922;2023-07-22T00:54:26;4.25;;;3.10;;
44728;SDS011;30457;53.590;9.922;2023-07-22T00:58:52;4.95;;;3.60;;
44728;SDS011;30457;53.590;9.922;2023-07-22T01:03:18;4.60;;;3.28;;
44728;SDS011;30457;53.590;9.922;2023-07-22T01:07:44;4.63;;;3.30;;
44728;SDS011;30457;53.590;9.922;2023-07-22T01:12:10;4.68;;;3.10;;
44728;SDS011;30457;53.590;9.922;2023-07-22T01:16:36;4.93;;;3.05;;
44728;SDS011;30457;53.590;9.922;2023-07-22T01:21:02;6.35;;;3.30;;
44728;SDS011;30457;53.590;9.922;2023-07-22T01:25:27;4.45;;;3.08;;
44728;SDS011;30457;53.590;9.922;2023-07-22T01:29:53;9.10;;;3.67;;
44728;SDS011;30457;53.590;9.922;2023-07-22T01:34:19;4.20;;;2.78;;
44728;SDS011;30457;53.590;9.922;2023-07-22T01:38:45;6.85;;;3.42;;
44728;SDS011;30457;53.590;9.922;2023-07-22T01:43:11;6.95;;;3.35;;
44728;SDS011;30457;53.590;9.922;2023-07-22T01:47:37;8.70;;;3.20;;
44728;SDS011;30457;53.590;9.922;2023-07-22T01:52:03;7.65;;;3.58;;
44728;SDS011;30457;53.590;9.922;2023-07-22T01:56:30;5.07;;;3.08;;
44728;SDS011;30457;53.590;9.922;2023-07-22T02:00:56;6.65;;;3.50;;
44728;SDS011;30457;53.590;9.922;2023-07-22T02:05:21;4.55;;;3.00;;
44728;SDS011;30457;53.590;9.922;2023-07-22T02:09:47;4.40;;;3.13;;
44728;SDS011;30457;53.590;9.922;2023-07-22T02:14:12;14.40;;;3.20;;
44728;SDS011;30457;53.590;9.922;2023-07-22T02:18:38;6.82;;;3.33;;
44728;SDS011;30457;53.590;9.922;2023-07-22T02:23:03;5.03;;;2.70;;
44728;SDS011;30457;53.590;9.922;2023-07-22T02:27:29;5.18;;;3.58;;
44728;SDS011;30457;53.590;9.922;2023-07-22T02:31:55;5.53;;;3.00;;
44728;SDS011;30457;53.590;9.922;2023-07-22T02:36:20;3.53;;;2.42;;
44728;SDS011;30457;53.590;9.922;2023-07-22T02:40:46;5.80;;;2.95;;
44728;SDS011;30457;53.590;9.922;2023-07-22T02:45:12;5.72;;;3.50;;
44728;SDS011;30457;53.590;9.922;2023-07-22T02:49:37;6.55;;;3.72;;
44728;SDS011;30457;53.590;9.922;2023-07-22T02:54:03;10.07;;;3.63;;
44728;SDS011;30457;53.590;9.922;2023-07-22T02:58:28;5.45;;;3.15;;
44728;SDS011;30457;53.590;9.922;2023-07-22T03:02:55;5.70;;;3.10;;
44728;SDS011;30457;53.590;9.922;2023-07-22T03:07:28;7.88;;;3.45;;
44728;SDS011;30457;53.590;9.922;2023-07-22T03:11:53;5.47;;;3.58;;
44728;SDS011;30457;53.590;9.922;2023-07-22T03:16:19;6.38;;;3.22;;
44728;SDS011;30457;53.590;9.922;2023-07-22T03:20:44;4.28;;;3.30;;
44728;SDS011;30457;53.590;9.922;2023-07-22T03:25:10;7.00;;;4.50;;
44728;SDS011;30457;53.590;9.922;2023-07-22T03:29:37;7.57;;;3.72;;
44728;SDS011;30457;53.590;9.922;2023-07-22T03:34:03;8.07;;;3.58;;
44728;SDS011;30457;53.590;9.922;2023-07-22T03:38:29;9.40;;;3.38;;
44728;SDS011;30457;53.590;9.922;2023-07-22T03:42:56;4.10;;;2.67;;
44728;SDS011;30457;53.590;9.922;2023-07-22T03:47:25;6.75;;;3.10;;
44728;SDS011;30457;53.590;9.922;2023-07-22T03:51:50;4.07;;;3.00;;
44728;SDS011;30457;53.590;9.922;2023-07-22T03:56:16;6.80;;;3.47;;
44728;SDS011;30457;53.590;9.922;2023-07-22T04:00:41;7.60;;;3.17;;
44728;SDS011;30457;53.590;9.922;2023-07-22T04:05:07;10.43;;;4.03;;
44728;SDS011;30457;53.590;9.922;2023-07-22T04:09:34;5.47;;;3.30;;
44728;SDS011;30457;53.590;9.922;2023-07-22T04:14:00;6.40;;;3.85;;
44728;SDS011;30457;53.590;9.922;2023-07-22T04:18:25;4.32;;;2.90;;
44728;SDS011;30457;53.590;9.922;2023-07-22T04:22:51;6.15;;;2.85;;
44728;SDS011;30457;53.590;9.922;2023-07-22T04:27:16;5.82;;;3.20;;
44728;SDS011;30457;53.590;9.922;2023-07-22T04:31:42;5.60;;;3.15;;
44728;SDS011;30457;53.590;9.922;2023-07-22T04:36:08;8.05;;;3.42;;
44728;SDS011;30457;53.590;9.922;2023-07-22T04:40:33;4.22;;;3.13;;
44728;SDS011;30457;53.590;9.922;2023-07-22T04:44:59;6.38;;;3.13;;
44728;SDS011;30457;53.590;9.922;2023-07-22T04:49:24;6.72;;;3.20;;
44728;SDS011;30457;53.590;9.922;2023-07-22T04:53:50;7.55;;;3.08;;
44728;SDS011;30457;53.590;9.922;2023-07-22T04:58:15;7.60;;;3.58;;
44728;SDS011;30457;53.590;9.922;2023-07-22T05:02:44;11.38;;;3.97;;
44728;SDS011;30457;53.590;9.922;2023-07-22T05:07:10;5.13;;;3.13;;
44728;SDS011;30457;53.590;9.922;2023-07-22T05:11:36;6.18;;;3.10;;
44728;SDS011;30457;53.590;9.922;2023-07-22T05:16:02;9.18;;;3.13;;
44728;SDS011;30457;53.590;9.922;2023-07-22T05:20:27;5.70;;;2.75;;
44728;SDS011;30457;53.590;9.922;2023-07-22T05:24:53;4.88;;;2.83;;
44728;SDS011;30457;53.590;9.922;2023-07-22T05:29:18;4.13;;;2.97;;
44728;SDS011;30457;53.590;9.922;2023-07-22T05:33:44;5.47;;;2.90;;
44728;SDS011;30457;53.590;9.922;2023-07-22T05:38:10;3.88;;;2.58;;
44728;SDS011;30457;53.590;9.922;2023-07-22T05:42:35;6.57;;;3.00;;
44728;SDS011;30457;53.590;9.922;2023-07-22T05:47:01;4.50;;;3.13;;
44728;SDS011;30457;53.590;9.922;2023-07-22T05:51:26;7.07;;;2.97;;
44728;SDS011;30457;53.590;9.922;2023-07-22T05:55:52;3.50;;;2.38;;
44728;SDS011;30457;53.590;9.922;2023-07-22T06:00:17;5.10;;;2.70;;
44728;SDS011;30457;53.590;9.922;2023-07-22T06:04:44;4.30;;;2.60;;
44728;SDS011;30457;53.590;9.922;2023-07-22T06:09:09;6.00;;;2.42;;
44728;SDS011;30457;53.590;9.922;2023-07-22T06:13:35;3.63;;;2.40;;
44728;SDS011;30457;53.590;9.922;2023-07-22T06:18:00;3.20;;;2.35;;
44728;SDS011;30457;53.590;9.922;2023-07-22T06:22:26;3.38;;;2.17;;
44728;SDS011;30457;53.590;9.922;2023-07-22T06:26:51;2.90;;;2.00;;
44728;SDS011;30457;53.590;9.922;2023-07-22T06:31:17;9.38;;;2.20;;
44728;SDS011;30457;53.590;9.922;2023-07-22T06:35:43;5.13;;;1.90;;
44728;SDS011;30457;53.590;9.922;2023-07-22T06:40:08;3.28;;;1.85;;
44728;SDS011;30457;53.590;9.922;2023-07-22T06:44:34;4.40;;;1.63;;
44728;SDS011;30457;53.590;9.922;2023-07-22T06:49:00;4.45;;;1.90;;
44728;SDS011;30457;53.590;9.922;2023-07-22T06:53:25;3.72;;;1.63;;
44728;SDS011;30457;53.590;9.922;2023-07-22T06:57:51;1.70;;;1.42;;
44728;SDS011;30457;53.590;9.922;2023-07-22T07:02:16;4.97;;;1.38;;
44728;SDS011;30457;53.590;9.922;2023-07-22T07:06:42;2.30;;;1.60;;
44728;SDS011;30457;53.590;9.922;2023-07-22T07:11:08;2.88;;;1.67;;
44728;SDS011;30457;53.590;9.922;2023-07-22T07:15:33;2.67;;;1.60;;
44728;SDS011;30457;53.590;9.922;2023-07-22T07:19:59;4.20;;;1.45;;
44728;SDS011;30457;53.590;9.922;2023-07-22T07:24:24;4.45;;;1.13;;
44728;SDS011;30457;53.590;9.922;2023-07-22T07:28:52;3.55;;;1.02;;
44728;SDS011;30457;53.590;9.922;2023-07-22T07:33:18;1.85;;;1.20;;
44728;SDS011;30457;53.590;9.922;2023-07-22T07:37:43;4.15;;;1.20;;
44728;SDS011;30457;53.590;9.922;2023-07-22T07:42:09;4.45;;;1.20;;
44728;SDS011;30457;53.590;9.922;2023-07-22T07:46:35;3.25;;;1.40;;
44728;SDS011;30457;53.590;9.922;2023-07-22T07:51:00;4.05;;;1.05;;
44728;SDS011;30457;53.590;9.922;2023-07-22T07:55:26;1.23;;;0.93;;
44728;SDS011;30457;53.590;9.922;2023-07-22T07:59:52;1.35;;;1.17;;
44728;SDS011;30457;53.590;9.922;2023-07-22T08:04:17;1.92;;;1.25;;
44728;SDS011;30457;53.590;9.922;2023-07-22T08:08:43;2.45;;;1.60;;
44728;SDS011;30457;53.590;9.922;2023-07-22T08:13:08;3.17;;;1.10;;
44728;SDS011;30457;53.590;9.922;2023-07-22T08:17:34;5.90;;;1.38;;
44728;SDS011;30457;53.590;9.922;2023-07-22T08:22:00;2.70;;;1.13;;
44728;SDS011;30457;53.590;9.922;2023-07-22T08:26:25;2.90;;;1.13;;
44728;SDS011;30457;53.590;9.922;2023-07-22T08:30:54;2.63;;;0.80;;
44728;SDS011;30457;53.590;9.922;2023-07-22T08:35:20;1.40;;;0.75;;
44728;SDS011;30457;53.590;9.922;2023-07-22T08:39:47;2.00;;;0.85;;
44728;SDS011;30457;53.590;9.922;2023-07-22T08:44:12;1.17;;;0.88;;
44728;SDS011;30457;53.590;9.922;2023-07-22T08:48:41;0.82;;;0.60;;
44728;SDS011;30457;53.590;9.922;2023-07-22T08:53:14;1.15;;;0.73;;
44728;SDS011;30457;53.590;9.922;2023-07-22T08:57:40;0.77;;;0.73;;
44728;SDS011;30457;53.590;9.922;2023-07-22T09:02:08;1.48;;;0.80;;
44728;SDS011;30457;53.590;9.922;2023-07-22T09:06:36;0.95;;;0.73;;
44728;SDS011;30457;53.590;9.922;2023-07-22T09:11:03;1.13;;;0.90;;
44728;SDS011;30457;53.590;9.922;2023-07-22T09:15:29;0.73;;;0.50;;
44728;SDS011;30457;53.590;9.922;2023-07-22T09:19:56;1.38;;;0.70;;
44728;SDS011;30457;53.590;9.922;2023-07-22T09:24:26;0.82;;;0.70;;
44728;SDS011;30457;53.590;9.922;2023-07-22T09:33:21;6.30;;;1.02;;
44728;SDS011;30457;53.590;9.922;2023-07-22T09:37:47;1.23;;;0.68;;
44728;SDS011;30457;53.590;9.922;2023-07-22T09:42:23;1.25;;;0.70;;
44728;SDS011;30457;53.590;9.922;2023-07-22T09:46:50;2.15;;;0.68;;
44728;SDS011;30457;53.590;9.922;2023-07-22T09:51:15;1.75;;;1.02;;
44728;SDS011;30457;53.590;9.922;2023-07-22T09:55:41;1.40;;;0.70;;
44728;SDS011;30457;53.590;9.922;2023-07-22T10:00:07;1.90;;;0.80;;
44728;SDS011;30457;53.590;9.922;2023-07-22T10:04:37;0.93;;;0.68;;
44728;SDS011;30457;53.590;9.922;2023-07-22T10:09:05;1.10;;;0.80;;
44728;SDS011;30457;53.590;9.922;2023-07-22T10:13:33;1.25;;;0.82;;
44728;SDS011;30457;53.590;9.922;2023-07-22T10:17:58;3.08;;;0.93;;
44728;SDS011;30457;53.590;9.922;2023-07-22T10:22:25;1.55;;;0.82;;
44728;SDS011;30457;53.590;9.922;2023-07-22T10:26:53;1.73;;;0.80;;
44728;SDS011;30457;53.590;9.922;2023-07-22T10:31:19;1.63;;;0.95;;
44728;SDS011;30457;53.590;9.922;2023-07-22T10:36:01;2.75;;;1.10;;
44728;SDS011;30457;53.590;9.922;2023-07-22T10:40:29;1.77;;;0.95;;
44728;SDS011;30457;53.590;9.922;2023-07-22T10:44:55;1.17;;;0.80;;
44728;SDS011;30457;53.590;9.922;2023-07-22T10:49:27;1.80;;;1.13;;
44728;SDS011;30457;53.590;9.922;2023-07-22T10:54:13;1.48;;;0.80;;
44728;SDS011;30457;53.590;9.922;2023-07-22T11:03:12;2.08;;;1.00;;
44728;SDS011;30457;53.590;9.922;2023-07-22T11:07:42;1.08;;;0.95;;
44728;SDS011;30457;53.590;9.922;2023-07-22T11:12:13;1.27;;;1.17;;
44728;SDS011;30457;53.590;9.922;2023-07-22T11:16:45;1.15;;;1.05;;
44728;SDS011;30457;53.590;9.922;2023-07-22T11:21:12;1.90;;;1.20;;
44728;SDS011;30457;53.590;9.922;2023-07-22T11:25:37;2.45;;;1.65;;
44728;SDS011;30457;53.590;9.922;2023-07-22T11:30:03;5.32;;;2.08;;
44728;SDS011;30457;53.590;9.922;2023-07-22T11:34:29;2.45;;;1.67;;
44728;SDS011;30457;53.590;9.922;2023-07-22T11:39:05;3.47;;;1.80;;
44728;SDS011;30457;53.590;9.922;2023-07-22T11:43:32;3.58;;;1.85;;
44728;SDS011;30457;53.590;9.922;2023-07-22T11:47:57;2.00;;;1.45;;
44728;SDS011;30457;53.590;9.922;2023-07-22T11:52:23;2.40;;;1.65;;
44728;SDS011;30457;53.590;9.922;2023-07-22T11:56:48;2.85;;;1.90;;
44728;SDS011;30457;53.590;9.922;2023-07-22T12:01:14;3.75;;;2.03;;
44728;SDS011;30457;53.590;9.922;2023-07-22T12:05:40;3.40;;;2.00;;
44728;SDS011;30457;53.590;9.922;2023-07-22T12:10:06;4.03;;;2.15;;
44728;SDS011;30457;53.590;9.922;2023-07-22T12:14:35;14.40;;;2.67;;
44728;SDS011;30457;53.590;9.922;2023-07-22T12:19:00;3.92;;;1.85;;
44728;SDS011;30457;53.590;9.922;2023-07-22T12:23:26;3.70;;;2.03;;
44728;SDS011;30457;53.590;9.922;2023-07-22T12:27:52;2.75;;;2.00;;
44728;SDS011;30457;53.590;9.922;2023-07-22T12:32:18;4.28;;;2.95;;
44728;SDS011;30457;53.590;9.922;2023-07-22T12:36:43;2.33;;;2.00;;
44728;SDS011;30457;53.590;9.922;2023-07-22T12:41:09;3.67;;;2.40;;
44728;SDS011;30457;53.590;9.922;2023-07-22T12:45:34;4.22;;;2.90;;
44728;SDS011;30457;53.590;9.922;2023-07-22T12:50:00;4.78;;;2.65;;
44728;SDS011;30457;53.590;9.922;2023-07-22T12:54:25;3.60;;;2.63;;
44728;SDS011;30457;53.590;9.922;2023-07-22T12:58:51;3.03;;;2.50;;
44728;SDS011;30457;53.590;9.922;2023-07-22T13:03:16;3.95;;;2.60;;
44728;SDS011;30457;53.590;9.922;2023-07-22T13:07:42;6.03;;;2.85;;
44728;SDS011;30457;53.590;9.922;2023-07-22T13:12:07;6.00;;;2.53;;
44728;SDS011;30457;53.590;9.922;2023-07-22T13:16:33;6.93;;;3.40;;
44728;SDS011;30457;53.590;9.922;2023-07-22T13:20:59;4.30;;;2.97;;
44728;SDS011;30457;53.590;9.922;2023-07-22T13:25:24;4.72;;;3.38;;
44728;SDS011;30457;53.590;9.922;2023-07-22T13:29:50;5.97;;;3.13;;
44728;SDS011;30457;53.590;9.922;2023-07-22T13:34:15;5.60;;;3.58;;
44728;SDS011;30457;53.590;9.922;2023-07-22T13:38:41;4.18;;;2.65;;
44728;SDS011;30457;53.590;9.922;2023-07-22T13:43:06;6.00;;;3.03;;
44728;SDS011;30457;53.590;9.922;2023-07-22T13:47:32;6.70;;;3.25;;
44728;SDS011;30457;53.590;9.922;2023-07-22T13:51:58;4.72;;;3.42;;
44728;SDS011;30457;53.590;9.922;2023-07-22T13:56:23;4.78;;;3.28;;
44728;SDS011;30457;53.590;9.922;2023-07-22T14:00:49;4.47;;;3.22;;
44728;SDS011;30457;53.590;9.922;2023-07-22T14:05:15;6.20;;;3.30;;
44728;SDS011;30457;53.590;9.922;2023-07-22T14:09:40;4.78;;;2.60;;
44728;SDS011;30457;53.590;9.922;2023-07-22T14:14:06;7.13;;;3.47;;
44728;SDS011;30457;53.590;9.922;2023-07-22T14:18:31;4.03;;;3.15;;
44728;SDS011;30457;53.590;9.922;2023-07-22T14:22:58;3.72;;;2.70;;
44728;SDS011;30457;53.590;9.922;2023-07-22T14:27:23;4.45;;;2.80;;
44728;SDS011;30457;53.590;9.922;2023-07-22T14:31:49;6.47;;;3.25;;
44728;SDS011;30457;53.590;9.922;2023-07-22T14:36:14;2.42;;;2.08;;
44728;SDS011;30457;53.590;9.922;2023-07-22T14:40:40;3.28;;;2.33;;
44728;SDS011;30457;53.590;9.922;2023-07-22T14:45:06;2.58;;;1.85;;
44728;SDS011;30457;53.590;9.922;2023-07-22T14:49:32;3.22;;;2.10;;
44728;SDS011;30457;53.590;9.922;2023-07-22T14:53:58;3.67;;;2.05;;
44728;SDS011;30457;53.590;9.922;2023-07-22T14:58:23;2.92;;;1.90;;
44728;SDS011;30457;53.590;9.922;2023-07-22T15:02:49;2.67;;;1.70;;
44728;SDS011;30457;53.590;9.922;2023-07-22T15:07:14;3.92;;;2.00;;
44728;SDS011;30457;53.590;9.922;2023-07-22T15:11:40;2.53;;;1.77;;
44728;SDS011;30457;53.590;9.922;2023-07-22T15:16:05;2.10;;;1.73;;
44728;SDS011;30457;53.590;9.922;2023-07-22T15:20:31;2.58;;;2.00;;
44728;SDS011;30457;53.590;9.922;2023-07-22T15:24:56;2.63;;;1.80;;
44728;SDS011;30457;53.590;9.922;2023-07-22T15:29:22;2.78;;;2.20;;
44728;SDS011;30457;53.590;9.922;2023-07-22T15:33:48;3.60;;;2.28;;
44728;SDS011;30457;53.590;9.922;2023-07-22T15:38:14;4.32;;;2.00;;
44728;SDS011;30457;53.590;9.922;2023-07-22T15:42:40;3.00;;;2.20;;
44728;SDS011;30457;53.590;9.922;2023-07-22T15:47:05;2.30;;;2.05;;
44728;SDS011;30457;53.590;9.922;2023-07-22T15:51:31;3.35;;;2.60;;
44728;SDS011;30457;53.590;9.922;2023-07-22T15:55:57;2.83;;;2.17;;
44728;SDS011;30457;53.590;9.922;2023-07-22T16:00:22;2.38;;;1.95;;
44728;SDS011;30457;53.590;9.922;2023-07-22T16:04:48;2.05;;;1.83;;
44728;SDS011;30457;53.590;9.922;2023-07-22T16:09:13;2.40;;;1.77;;
44728;SDS011;30457;53.590;9.922;2023-07-22T16:13:40;2.42;;;2.00;;
44728;SDS011;30457;53.590;9.922;2023-07-22T16:18:06;2.42;;;1.98;;
44728;SDS011;30457;53.590;9.922;2023-07-22T16:22:31;2.80;;;2.03;;
44728;SDS011;30457;53.590;9.922;2023-07-22T16:26:58;3.35;;;2.17;;
44728;SDS011;30457;53.590;9.922;2023-07-22T16:31:23;1.67;;;1.55;;
44728;SDS011;30457;53.590;9.922;2023-07-22T16:35:49;2.80;;;2.20;;
44728;SDS011;30457;53.590;9.922;2023-07-22T16:40:14;3.70;;;3.00;;
44728;SDS011;30457;53.590;9.922;2023-07-22T16:44:40;3.92;;;2.22;;
44728;SDS011;30457;53.590;9.922;2023-07-22T16:49:05;3.35;;;2.40;;
44728;SDS011;30457;53.590;9.922;2023-07-22T16:53:32;4.70;;;2.00;;
44728;SDS011;30457;53.590;9.922;2023-07-22T16:57:57;5.03;;;2.58;;
44728;SDS011;30457;53.590;9.922;2023-07-22T17:02:23;3.70;;;2.58;;
44728;SDS011;30457;53.590;9.922;2023-07-22T17:06:48;3.65;;;2.35;;
44728;SDS011;30457;53.590;9.922;2023-07-22T17:11:14;5.15;;;2.75;;
44728;SDS011;30457;53.590;9.922;2023-07-22T17:15:39;3.30;;;2.20;;
44728;SDS011;30457;53.590;9.922;2023-07-22T17:20:05;3.25;;;2.60;;
44728;SDS011;30457;53.590;9.922;2023-07-22T17:24:31;3.72;;;3.08;;
44728;SDS011;30457;53.590;9.922;2023-07-22T17:28:56;4.80;;;2.97;;
44728;SDS011;30457;53.590;9.922;2023-07-22T17:33:22;3.47;;;2.70;;
44728;SDS011;30457;53.590;9.922;2023-07-22T17:37:47;4.13;;;2.67;;
44728;SDS011;30457;53.590;9.922;2023-07-22T17:42:14;4.47;;;2.50;;
44728;SDS011;30457;53.590;9.922;2023-07-22T17:46:39;5.40;;;3.28;;
44728;SDS011;30457;53.590;9.922;2023-07-22T17:51:05;2.60;;;2.40;;
44728;SDS011;30457;53.590;9.922;2023-07-22T17:55:30;3.80;;;2.95;;
44728;SDS011;30457;53.590;9.922;2023-07-22T17:59:56;4.97;;;2.90;;
44728;SDS011;30457;53.590;9.922;2023-07-22T18:04:21;4.35;;;2.83;;
44728;SDS011;30457;53.590;9.922;2023-07-22T18:08:47;5.28;;;2.78;;
44728;SDS011;30457;53.590;9.922;2023-07-22T18:13:12;4.10;;;2.95;;
44728;SDS011;30457;53.590;9.922;2023-07-22T18:17:38;3.95;;;3.35;;
44728;SDS011;30457;53.590;9.922;2023-07-22T18:22:04;4.60;;;3.28;;
44728;SDS011;30457;53.590;9.922;2023-07-22T18:26:29;5.05;;;2.85;;
44728;SDS011;30457;53.590;9.922;2023-07-22T18:30:55;6.22;;;3.35;;
44728;SDS011;30457;53.590;9.922;2023-07-22T18:35:20;3.40;;;3.08;;
44728;SDS011;30457;53.590;9.922;2023-07-22T18:39:46;4.68;;;2.78;;
44728;SDS011;30457;53.590;9.922;2023-07-22T18:44:12;3.45;;;2.80;;
44728;SDS011;30457;53.590;9.922;2023-07-22T18:48:38;7.00;;;3.50;;
44728;SDS011;30457;53.590;9.922;2023-07-22T18:53:03;4.65;;;3.55;;
44728;SDS011;30457;53.590;9.922;2023-07-22T18:57:29;4.57;;;2.97;;
44728;SDS011;30457;53.590;9.922;2023-07-22T19:01:55;6.97;;;3.25;;
44728;SDS011;30457;53.590;9.922;2023-07-22T19:06:20;3.42;;;2.97;;
44728;SDS011;30457;53.590;9.922;2023-07-22T19:10:46;4.38;;;3.28;;
44728;SDS011;30457;53.590;9.922;2023-07-22T19:15:11;5.60;;;3.40;;
44728;SDS011;30457;53.590;9.922;2023-07-22T19:19:37;3.85;;;3.25;;
44728;SDS011;30457;53.590;9.922;2023-07-22T19:24:03;5.72;;;3.35;;
44728;SDS011;30457;53.590;9.922;2023-07-22T19:28:29;4.70;;;3.50;;
44728;SDS011;30457;53.590;9.922;2023-07-22T19:32:55;5.50;;;3.25;;
44728;SDS011;30457;53.590;9.922;2023-07-22T19:37:20;5.97;;;3.13;;
44728;SDS011;30457;53.590;9.922;2023-07-22T19:41:46;11.73;;;3.65;;
44728;SDS011;30457;53.590;9.922;2023-07-22T19:46:12;4.35;;;3.45;;
44728;SDS011;30457;53.590;9.922;2023-07-22T19:50:39;4.28;;;3.33;;
44728;SDS011;30457;53.590;9.922;2023-07-22T19:55:04;6.63;;;3.30;;
44728;SDS011;30457;53.590;9.922;2023-07-22T19:59:30;5.20;;;3.30;;
44728;SDS011;30457;53.590;9.922;2023-07-22T20:03:56;4.97;;;3.20;;
44728;SDS011;30457;53.590;9.922;2023-07-22T20:08:21;4.95;;;3.17;;
44728;SDS011;30457;53.590;9.922;2023-07-22T20:12:47;3.30;;;2.63;;
44728;SDS011;30457;53.590;9.922;2023-07-22T20:17:12;4.10;;;3.05;;
44728;SDS011;30457;53.590;9.922;2023-07-22T20:21:38;4.93;;;3.65;;
44728;SDS011;30457;53.590;9.922;2023-07-22T20:26:03;5.50;;;3.42;;
44728;SDS011;30457;53.590;9.922;2023-07-22T20:30:29;7.50;;;3.47;;
44728;SDS011;30457;53.590;9.922;2023-07-22T20:34:55;5.85;;;3.75;;
44728;SDS011;30457;53.590;9.922;2023-07-22T20:39:22;7.45;;;4.32;;
44728;SDS011;30457;53.590;9.922;2023-07-22T20:43:47;9.68;;;4.00;;
44728;SDS011;30457;53.590;9.922;2023-07-22T20:48:13;6.25;;;4.03;;
44728;SDS011;30457;53.590;9.922;2023-07-22T20:52:38;5.13;;;4.35;;
44728;SDS011;30457;53.590;9.922;2023-07-22T20:57:04;4.93;;;3.90;;
44728;SDS011;30457;53.590;9.922;2023-07-22T21:01:30;9.68;;;4.38;;
44728;SDS011;30457;53.590;9.922;2023-07-22T21:05:56;5.60;;;4.22;;
44728;SDS011;30457;53.590;9.922;2023-07-22T21:10:22;5.95;;;4.15;;
44728;SDS011;30457;53.590;9.922;2023-07-22T21:14:48;5.55;;;3.92;;
44728;SDS011;30457;53.590;9.922;2023-07-22T21:19:13;5.70;;;3.90;;
44728;SDS011;30457;53.590;9.922;2023-07-22T21:23:39;7.35;;;4.25;;
44728;SDS011;30457;53.590;9.922;2023-07-22T21:28:04;5.47;;;3.65;;
44728;SDS011;30457;53.590;9.922;2023-07-22T21:32:30;6.22;;;4.38;;
44728;SDS011;30457;53.590;9.922;2023-07-22T21:36:56;5.30;;;3.50;;
44728;SDS011;30457;53.590;9.922;2023-07-22T21:41:21;4.22;;;3.00;;
44728;SDS011;30457;53.590;9.922;2023-07-22T21:45:47;5.75;;;3.53;;
44728;SDS011;30457;53.590;9.922;2023-07-22T21:50:14;4.80;;;3.60;;
44728;SDS011;30457;53.590;9.922;2023-07-22T21:54:39;8.75;;;3.80;;
44728;SDS011;30457;53.590;9.922;2023-07-22T21:59:05;6.50;;;4.07;;
44728;SDS011;30457;53.590;9.922;2023-07-22T22:03:30;4.93;;;3.25;;
44728;SDS011;30457;53.590;9.922;2023-07-22T22:07:56;7.13;;;3.55;;
44728;SDS011;30457;53.590;9.922;2023-07-22T22:12:22;4.50;;;2.83;;
44728;SDS011;30457;53.590;9.922;2023-07-22T22:16:47;3.90;;;2.90;;
44728;SDS011;30457;53.590;9.922;2023-07-22T22:21:13;3.25;;;2.80;;
44728;SDS011;30457;53.590;9.922;2023-07-22T22:25:38;3.80;;;2.65;;
44728;SDS011;30457;53.590;9.922;2023-07-22T22:30:04;5.65;;;2.85;;
44728;SDS011;30457;53.590;9.922;2023-07-22T22:34:30;6.75;;;3.10;;
44728;SDS011;30457;53.590;9.922;2023-07-22T22:38:56;6.40;;;3.17;;
44728;SDS011;30457;53.590;9.922;2023-07-22T22:43:21;5.60;;;3.08;;
44728;SDS011;30457;53.590;9.922;2023-07-22T22:47:47;5.82;;;3.17;;
44728;SDS011;30457;53.590;9.922;2023-07-22T22:52:12;4.43;;;3.25;;
44728;SDS011;30457;53.590;9.922;2023-07-22T22:56:38;5.30;;;3.25;;
44728;SDS011;30457;53.590;9.922;2023-07-22T23:01:10;5.68;;;3.20;;
44728;SDS011;30457;53.590;9.922;2023-07-22T23:05:39;4.38;;;2.83;;
44728;SDS011;30457;53.590;9.922;2023-07-22T23:10:05;3.38;;;2.50;;
44728;SDS011;30457;53.590;9.922;2023-07-22T23:14:31;9.20;;;2.63;;
44728;SDS011;30457;53.590;9.922;2023-07-22T23:19:00;4.50;;;2.92;;
44728;SDS011;30457;53.590;9.922;2023-07-22T23:23:26;3.40;;;2.70;;
44728;SDS011;30457;53.590;9.922;2023-07-22T23:27:51;4.70;;;2.78;;
44728;SDS011;30457;53.590;9.922;2023-07-22T23:32:17;4.70;;;2.40;;
44728;SDS011;30457;53.590;9.922;2023-07-22T23:36:42;3.22;;;2.30;;
44728;SDS011;30457;53.590;9.922;2023-07-22T23:41:08;3.88;;;2.47;;
44728;SDS011;30457;53.590;9.922;2023-07-22T23:45:33;3.95;;;2.60;;
44728;SDS011;30457;53.590;9.922;2023-07-22T23:49:59;3.47;;;2.47;;
44728;SDS011;30457;53.590;9.922;2023-07-22T23:54:25;3.88;;;2.47;;
44728;SDS011;30457;53.590;9.922;2023-07-22T23:58:51;3.60;;;2.95;;
